Volney, New York
Current Conditions -  °F | °C
As of 8:54 PM on Friday 21 Nov 2014 (Local Time) from KFZY Reporting Station
Overcast Overcast  
Wind Chill: 15°   Ceiling: 4700
Heat Index: 26°   Visibility: 10mi
Dew Point: 13°   Wind: 13mph
Humidity: 58%   Direction: 230°SW
Pressure: 30.42"   Gusts: NA
Location:  43.3608°N, 76.3536°W
Report Text: KFZY 220154Z AUTO 23011KT 10SM OVC047 M03/M11 A3042 RMK AO2 SLP306 T10331106
Loading
Personal Weather Stations






























Interactive Weather Map New forecast layout! Learn more

10-Day Weather Forecast

Advertisements
Track Severe Weather on mobile